createdAt,value
2019-03-09T00:01:18.182Z,93.40
2019-03-09T00:03:47.424Z,93.70
2019-03-09T00:06:16.943Z,93.70
2019-03-09T00:08:46.173Z,93.90
2019-03-09T00:11:15.382Z,94.00
2019-03-09T00:13:44.593Z,94.00
2019-03-09T00:16:13.809Z,94.00
2019-03-09T00:18:43.028Z,94.00
2019-03-09T00:21:12.301Z,94.00
2019-03-09T00:24:03.558Z,93.90
2019-03-09T00:27:00.926Z,93.90
2019-03-09T00:29:49.161Z,94.10
2019-03-09T00:32:20.527Z,94.00
2019-03-09T00:34:49.737Z,94.10
2019-03-09T00:37:18.926Z,94.10
2019-03-09T00:39:48.154Z,94.00
2019-03-09T00:42:17.298Z,94.10
2019-03-09T00:44:46.593Z,93.90
2019-03-09T00:47:15.786Z,94.00
2019-03-09T00:49:45.053Z,93.90
2019-03-09T00:52:14.193Z,94.30
2019-03-09T00:54:43.344Z,93.90
2019-03-09T00:57:12.601Z,93.80
2019-03-09T00:59:41.791Z,93.70
2019-03-09T01:02:10.965Z,93.70
2019-03-09T01:04:40.101Z,93.50
2019-03-09T01:07:09.261Z,93.30
2019-03-09T01:09:38.415Z,93.30
2019-03-09T01:12:07.545Z,93.40
2019-03-09T01:14:36.733Z,93.40
2019-03-09T01:17:05.902Z,93.40
2019-03-09T01:19:35.118Z,93.40
2019-03-09T01:22:04.402Z,93.50
2019-03-09T01:24:33.742Z,93.50
2019-03-09T01:27:02.890Z,93.60
2019-03-09T01:29:32.121Z,93.50
2019-03-09T01:32:01.349Z,93.60
2019-03-09T01:34:30.598Z,93.60
2019-03-09T01:36:59.797Z,93.60
2019-03-09T01:39:28.933Z,93.50
2019-03-09T01:41:58.086Z,93.40
2019-03-09T01:44:27.226Z,93.40
2019-03-09T01:46:56.369Z,93.40
2019-03-09T01:49:25.519Z,93.50
2019-03-09T01:51:54.767Z,93.50
2019-03-09T01:54:23.946Z,93.50
2019-03-09T01:56:53.098Z,93.50
2019-03-09T01:59:22.307Z,93.50
2019-03-09T02:01:51.453Z,93.40
2019-03-09T02:04:20.613Z,93.50
2019-03-09T02:06:49.895Z,93.60
2019-03-09T02:09:19.369Z,93.70
2019-03-09T02:11:48.523Z,93.80
2019-03-09T02:14:17.677Z,93.80
2019-03-09T02:16:46.986Z,93.80
2019-03-09T02:19:16.257Z,93.60
2019-03-09T02:21:45.542Z,93.50
2019-03-09T02:24:14.725Z,93.50
2019-03-09T02:26:43.894Z,93.40
2019-03-09T02:29:13.030Z,93.40
2019-03-09T02:31:42.242Z,93.40
2019-03-09T02:34:11.603Z,93.50
2019-03-09T02:36:40.742Z,93.50
2019-03-09T02:39:20.239Z,93.50
2019-03-09T02:41:49.374Z,93.50
2019-03-09T02:44:18.598Z,93.70
2019-03-09T02:46:47.757Z,93.70
2019-03-09T02:49:16.916Z,93.70
2019-03-09T02:51:46.345Z,93.80
2019-03-09T02:54:15.507Z,93.90
2019-03-09T02:56:44.757Z,93.90
2019-03-09T02:59:13.929Z,93.90
2019-03-09T03:02:04.938Z,94.00
2019-03-09T03:04:34.197Z,94.00
2019-03-09T03:07:03.754Z,94.00
2019-03-09T03:09:32.954Z,94.10
2019-03-09T03:12:02.181Z,94.00
2019-03-09T03:14:31.384Z,94.00
2019-03-09T03:17:00.677Z,94.10
2019-03-09T03:19:29.894Z,94.00
2019-03-09T03:21:59.105Z,93.90
2019-03-09T03:24:28.375Z,94.00
2019-03-09T03:26:57.637Z,94.10
2019-03-09T03:29:26.860Z,94.10
2019-03-09T03:31:56.154Z,94.20
2019-03-09T03:34:25.477Z,94.20
2019-03-09T03:36:54.887Z,94.10
2019-03-09T03:39:24.069Z,94.20
2019-03-09T03:41:53.211Z,94.30
2019-03-09T03:44:22.353Z,94.30
2019-03-09T03:46:51.570Z,94.30
2019-03-09T03:49:20.781Z,94.30
2019-03-09T03:51:50.030Z,94.40
2019-03-09T03:54:19.225Z,94.30
2019-03-09T03:56:48.442Z,94.40
2019-03-09T03:59:17.670Z,94.40
2019-03-09T04:01:46.905Z,94.80
2019-03-09T04:04:16.119Z,94.50
2019-03-09T04:06:45.515Z,94.50
2019-03-09T04:09:14.913Z,94.50
2019-03-09T04:11:44.444Z,94.30
2019-03-09T04:14:13.793Z,94.40
2019-03-09T04:16:42.958Z,94.40
2019-03-09T04:19:12.186Z,94.40
2019-03-09T04:21:41.478Z,94.30
2019-03-09T04:24:10.691Z,94.40
2019-03-09T04:26:39.932Z,94.30
2019-03-09T04:29:09.213Z,94.30
2019-03-09T04:31:38.446Z,94.30
2019-03-09T04:34:07.732Z,94.30
2019-03-09T04:36:36.970Z,94.30
2019-03-09T04:39:06.866Z,94.30
2019-03-09T04:41:36.029Z,94.40
2019-03-09T04:44:05.153Z,94.50
2019-03-09T04:46:34.449Z,94.60
2019-03-09T04:49:03.592Z,94.40
2019-03-09T04:51:32.774Z,94.40
2019-03-09T04:54:01.974Z,94.50
2019-03-09T04:56:31.132Z,94.50
2019-03-09T04:59:00.285Z,94.50
2019-03-09T05:01:29.429Z,94.40
2019-03-09T05:04:33.970Z,94.50
2019-03-09T05:07:03.284Z,94.40
2019-03-09T05:10:14.141Z,94.40
2019-03-09T05:12:43.757Z,94.30
2019-03-09T05:15:13.553Z,94.40
2019-03-09T05:17:42.697Z,94.40
2019-03-09T05:20:11.957Z,94.40
2019-03-09T05:22:41.206Z,94.30
2019-03-09T05:25:10.352Z,94.30
2019-03-09T05:27:39.709Z,94.20
2019-03-09T05:30:10.905Z,94.10
2019-03-09T05:32:40.053Z,94.10
2019-03-09T05:35:09.182Z,94.10
2019-03-09T05:37:43.099Z,94.10
2019-03-09T05:40:09.318Z,94.10
2019-03-09T05:42:38.489Z,94.00
2019-03-09T05:45:07.801Z,94.30
2019-03-09T05:47:36.957Z,94.10
2019-03-09T05:50:06.166Z,94.10
2019-03-09T05:52:36.480Z,93.80
2019-03-09T05:55:23.788Z,93.70
2019-03-09T05:57:53.028Z,93.60
2019-03-09T06:00:22.243Z,93.60
2019-03-09T06:02:51.469Z,93.60
2019-03-09T06:05:32.009Z,93.60
2019-03-09T06:08:01.155Z,93.50
2019-03-09T06:10:30.382Z,93.50
2019-03-09T06:12:59.618Z,93.60
2019-03-09T06:15:28.784Z,93.20
2019-03-09T06:17:57.923Z,93.00
2019-03-09T06:20:27.053Z,92.60
2019-03-09T06:22:56.269Z,92.50
2019-03-09T06:25:25.425Z,92.30
2019-03-09T06:27:54.669Z,92.00
2019-03-09T06:30:23.817Z,91.90
2019-03-09T06:33:21.124Z,91.60
2019-03-09T06:36:06.550Z,91.50
2019-03-09T06:38:59.870Z,91.40
2019-03-09T06:41:36.049Z,91.40
2019-03-09T06:44:05.310Z,91.30
2019-03-09T06:46:35.534Z,91.30
2019-03-09T06:49:04.703Z,91.20
2019-03-09T06:51:33.910Z,91.20
2019-03-09T06:54:03.130Z,91.00
2019-03-09T06:56:32.327Z,91.10
2019-03-09T06:59:01.677Z,91.00
2019-03-09T07:01:30.830Z,90.80
2019-03-09T07:03:59.989Z,90.60
2019-03-09T07:06:29.163Z,90.60
2019-03-09T07:08:58.353Z,90.50
2019-03-09T07:11:27.481Z,90.40
2019-03-09T07:13:56.938Z,90.30
2019-03-09T07:16:39.286Z,90.10
2019-03-09T07:19:09.661Z,89.80
2019-03-09T07:21:38.792Z,89.80
2019-03-09T07:24:07.932Z,89.30
2019-03-09T07:26:37.077Z,89.20
2019-03-09T07:29:06.213Z,89.00
2019-03-09T07:31:35.394Z,88.80
2019-03-09T07:34:24.793Z,88.50
2019-03-09T07:36:54.017Z,87.90
2019-03-09T07:39:23.153Z,87.50
2019-03-09T07:41:52.297Z,87.10
2019-03-09T07:44:21.449Z,86.50
2019-03-09T07:46:50.713Z,85.80
2019-03-09T07:49:19.951Z,85.70
2019-03-09T07:51:49.241Z,85.50
2019-03-09T07:54:18.485Z,85.40
2019-03-09T07:56:47.644Z,85.70
2019-03-09T07:59:16.808Z,85.50
2019-03-09T08:01:45.980Z,85.70
2019-03-09T08:04:15.146Z,85.80
2019-03-09T08:06:44.349Z,85.90
2019-03-09T08:09:13.549Z,85.70
2019-03-09T08:11:42.713Z,86.00
2019-03-09T08:14:11.851Z,86.10
2019-03-09T08:16:41.018Z,86.00
2019-03-09T08:19:10.150Z,85.30
2019-03-09T08:21:39.387Z,84.50
2019-03-09T08:24:08.576Z,84.50
2019-03-09T08:26:37.870Z,84.70
2019-03-09T08:29:07.129Z,83.80
2019-03-09T08:31:36.290Z,82.50
2019-03-09T08:34:05.506Z,81.60
2019-03-09T08:36:35.170Z,80.90
2019-03-09T08:39:06.335Z,80.30
2019-03-09T08:41:35.527Z,79.70
2019-03-09T08:44:04.789Z,79.20
2019-03-09T08:46:33.941Z,78.90
2019-03-09T08:49:05.662Z,78.20
2019-03-09T08:51:34.832Z,77.60
2019-03-09T08:54:04.022Z,77.90
2019-03-09T08:56:33.632Z,77.40
2019-03-09T08:59:02.950Z,77.40
2019-03-09T09:01:32.150Z,76.60
2019-03-09T09:04:01.364Z,76.50
2019-03-09T09:06:30.582Z,75.90
2019-03-09T09:08:59.813Z,76.00
2019-03-09T09:11:29.349Z,74.90
2019-03-09T09:13:58.532Z,73.50
2019-03-09T09:16:27.709Z,72.80
2019-03-09T09:18:56.941Z,72.50
2019-03-09T09:21:26.105Z,72.50
2019-03-09T09:23:55.322Z,72.80
2019-03-09T09:26:24.501Z,73.00
2019-03-09T09:28:53.716Z,73.50
2019-03-09T09:31:22.861Z,73.30
2019-03-09T09:33:52.021Z,73.20
2019-03-09T09:36:21.247Z,73.00
2019-03-09T09:38:50.461Z,72.60
2019-03-09T09:41:19.613Z,72.20
2019-03-09T09:43:48.834Z,70.70
2019-03-09T09:46:17.990Z,66.60
2019-03-09T09:48:47.230Z,52.00
2019-03-09T09:51:16.452Z,41.00
2019-03-09T09:53:45.638Z,30.50
2019-03-09T09:56:14.925Z,27.00
2019-03-09T09:58:44.142Z,29.30
2019-03-09T10:01:13.299Z,33.20
2019-03-09T10:03:42.433Z,37.80
2019-03-09T10:06:11.581Z,43.00
2019-03-09T10:08:40.725Z,46.30
2019-03-09T10:11:09.877Z,48.50
2019-03-09T10:13:39.029Z,50.80
2019-03-09T10:16:08.181Z,52.10
2019-03-09T10:18:37.385Z,53.70
2019-03-09T10:21:06.664Z,54.70
2019-03-09T10:23:37.924Z,55.50
2019-03-09T10:26:07.186Z,56.50
2019-03-09T10:28:36.322Z,57.40
2019-03-09T10:31:05.505Z,58.10
2019-03-09T10:33:34.677Z,58.50
2019-03-09T10:36:03.853Z,59.10
2019-03-09T10:38:33.006Z,60.20
2019-03-09T10:41:02.206Z,61.30
2019-03-09T10:43:31.366Z,62.60
2019-03-09T10:46:00.674Z,63.00
2019-03-09T10:48:29.827Z,63.60
2019-03-09T10:50:59.179Z,63.80
2019-03-09T10:53:28.346Z,63.70
2019-03-09T10:55:57.627Z,64.30
2019-03-09T10:58:26.931Z,65.00
2019-03-09T11:00:56.145Z,64.70
2019-03-09T11:03:25.385Z,64.30
2019-03-09T11:05:54.610Z,64.50
2019-03-09T11:08:23.794Z,64.80
2019-03-09T11:10:53.028Z,64.90
2019-03-09T11:13:22.243Z,65.10
2019-03-09T11:15:51.426Z,65.50
2019-03-09T11:18:20.573Z,65.90
2019-03-09T11:20:49.814Z,66.50
2019-03-09T11:23:19.013Z,67.10
2019-03-09T11:25:48.169Z,69.10
2019-03-09T11:28:17.445Z,70.30
2019-03-09T11:30:47.261Z,71.50
2019-03-09T11:33:17.041Z,72.70
2019-03-09T11:35:46.871Z,75.20
2019-03-09T11:38:16.521Z,78.00
2019-03-09T11:40:56.670Z,79.80
2019-03-09T11:43:16.663Z,83.90
2019-03-09T11:45:46.039Z,90.80
2019-03-09T11:48:15.603Z,91.40
2019-03-09T11:50:44.757Z,92.70
2019-03-09T11:53:13.945Z,92.40
2019-03-09T11:55:43.077Z,93.10
2019-03-09T11:58:12.222Z,93.40
2019-03-09T12:00:41.878Z,93.40
2019-03-09T12:03:11.147Z,94.10
2019-03-09T12:05:40.450Z,93.70
2019-03-09T12:08:09.703Z,93.40
2019-03-09T12:10:38.849Z,93.40
2019-03-09T12:13:08.021Z,93.50
2019-03-09T12:15:37.194Z,93.10
2019-03-09T12:18:06.409Z,93.10
2019-03-09T12:20:35.625Z,93.20
2019-03-09T12:23:17.398Z,93.10
2019-03-09T12:25:46.586Z,93.20
2019-03-09T12:28:15.787Z,92.50
2019-03-09T12:30:44.993Z,92.10
2019-03-09T12:33:14.150Z,92.10
2019-03-09T12:35:44.272Z,91.90
2019-03-09T12:38:13.658Z,91.40
2019-03-09T12:40:42.941Z,91.30
2019-03-09T12:43:12.122Z,91.30
2019-03-09T12:45:41.262Z,91.30
2019-03-09T12:48:10.416Z,91.10
2019-03-09T12:50:40.117Z,91.40
2019-03-09T12:53:09.258Z,91.40
2019-03-09T12:55:38.397Z,91.40
2019-03-09T12:58:07.663Z,91.50
2019-03-09T13:00:36.850Z,91.40
2019-03-09T13:03:05.998Z,91.60
2019-03-09T13:05:35.151Z,91.20
2019-03-09T13:08:04.433Z,91.20
2019-03-09T13:10:33.737Z,91.30
2019-03-09T13:13:02.926Z,91.30
2019-03-09T13:15:32.138Z,91.40
2019-03-09T13:18:01.362Z,91.50
2019-03-09T13:20:30.537Z,91.40
2019-03-09T13:22:59.695Z,91.30
2019-03-09T13:25:29.016Z,91.40
2019-03-09T13:27:59.091Z,91.50
2019-03-09T13:30:29.328Z,91.60
2019-03-09T13:32:59.140Z,91.60
2019-03-09T13:35:30.049Z,91.50
2019-03-09T13:37:59.350Z,91.40
2019-03-09T13:40:28.529Z,91.40
2019-03-09T13:42:59.480Z,91.30
2019-03-09T13:45:30.122Z,91.30
2019-03-09T13:47:59.266Z,91.10
2019-03-09T13:50:28.501Z,90.90
2019-03-09T13:52:57.717Z,91.00
2019-03-09T13:55:26.858Z,91.10
2019-03-09T13:57:56.125Z,91.00
2019-03-09T14:00:25.387Z,90.90
2019-03-09T14:02:54.529Z,90.90
2019-03-09T14:05:23.745Z,91.10
2019-03-09T14:07:52.897Z,90.80
2019-03-09T14:10:22.106Z,90.90
2019-03-09T14:12:51.251Z,90.80
2019-03-09T14:15:20.457Z,90.60
2019-03-09T14:17:49.877Z,90.40
2019-03-09T14:20:19.276Z,90.40
2019-03-09T14:22:48.678Z,90.40
2019-03-09T14:25:17.917Z,90.40
2019-03-09T14:27:47.067Z,90.30
2019-03-09T14:30:16.702Z,90.20
2019-03-09T14:32:45.941Z,90.20
2019-03-09T14:35:15.438Z,90.20
2019-03-09T14:37:44.687Z,90.10
2019-03-09T14:40:14.072Z,90.20
2019-03-09T14:42:43.423Z,89.60
2019-03-09T14:45:14.874Z,89.70
2019-03-09T14:47:44.114Z,89.70
2019-03-09T14:50:13.881Z,89.80
2019-03-09T14:52:43.037Z,89.60
2019-03-09T14:55:12.511Z,89.80
2019-03-09T14:57:41.807Z,89.90
2019-03-09T15:00:16.626Z,89.90
2019-03-09T15:02:45.825Z,90.00
2019-03-09T15:05:15.296Z,90.00
2019-03-09T15:07:44.615Z,89.90
2019-03-09T15:10:14.142Z,90.30
2019-03-09T15:12:43.289Z,90.00
2019-03-09T15:15:13.133Z,90.00
2019-03-09T15:17:42.337Z,90.00
2019-03-09T15:20:11.650Z,90.10
2019-03-09T15:22:40.923Z,90.10
2019-03-09T15:25:10.800Z,90.20
2019-03-09T15:27:40.031Z,90.20
2019-03-09T15:30:11.461Z,90.00
2019-03-09T15:32:40.601Z,90.00
2019-03-09T15:35:10.189Z,90.00
2019-03-09T15:37:41.278Z,90.00
2019-03-09T15:40:14.478Z,90.00
2019-03-09T15:42:43.737Z,90.00
2019-03-09T15:45:13.036Z,90.10
2019-03-09T15:47:42.265Z,90.20
2019-03-09T15:50:12.178Z,90.20
2019-03-09T15:52:41.410Z,90.10
2019-03-09T15:55:10.859Z,90.20
2019-03-09T15:57:40.216Z,90.30
2019-03-09T16:00:13.542Z,90.30
2019-03-09T16:02:42.761Z,90.30
2019-03-09T16:05:11.989Z,90.40
2019-03-09T16:07:41.201Z,90.40
2019-03-09T16:10:11.858Z,90.40
2019-03-09T16:12:41.049Z,90.50
2019-03-09T16:15:11.418Z,90.50
2019-03-09T16:17:40.582Z,90.60
2019-03-09T16:20:11.963Z,90.60
2019-03-09T16:22:41.137Z,90.60
2019-03-09T16:25:10.469Z,90.50
2019-03-09T16:27:39.614Z,90.60
2019-03-09T16:30:11.349Z,90.60
2019-03-09T16:32:41.153Z,90.40
2019-03-09T16:35:10.551Z,90.40
2019-03-09T16:37:39.718Z,90.40
2019-03-09T16:40:09.638Z,90.40
2019-03-09T16:42:39.621Z,90.30
2019-03-09T16:45:09.411Z,90.40
2019-03-09T16:47:38.555Z,90.40
2019-03-09T16:50:08.754Z,90.50
2019-03-09T16:52:37.910Z,90.80
2019-03-09T16:55:07.397Z,91.10
2019-03-09T16:57:36.621Z,91.30
2019-03-09T17:00:06.953Z,91.50
2019-03-09T17:02:36.155Z,91.80
2019-03-09T17:05:05.681Z,91.90
2019-03-09T17:07:34.893Z,92.00
2019-03-09T17:10:04.302Z,92.00
2019-03-09T17:12:33.449Z,91.90
2019-03-09T17:15:02.649Z,91.90
2019-03-09T17:17:31.789Z,92.00
2019-03-09T17:20:00.930Z,92.00
2019-03-09T17:22:33.172Z,92.10
2019-03-09T17:25:00.970Z,92.30
2019-03-09T17:27:30.242Z,92.20
2019-03-09T17:29:59.381Z,92.20
2019-03-09T17:32:28.529Z,92.20
2019-03-09T17:34:57.690Z,92.20
2019-03-09T17:37:26.847Z,92.00
2019-03-09T17:39:56.062Z,92.00
2019-03-09T17:42:25.203Z,91.70
2019-03-09T17:44:54.367Z,91.70
2019-03-09T17:47:23.574Z,91.60
2019-03-09T17:49:52.800Z,91.30
2019-03-09T17:52:21.950Z,91.20
2019-03-09T17:54:51.108Z,90.80
2019-03-09T17:57:20.322Z,90.40
2019-03-09T17:59:50.693Z,89.00
2019-03-09T18:02:19.829Z,87.60
2019-03-09T18:04:49.484Z,86.90
2019-03-09T18:07:18.622Z,87.20
2019-03-09T18:09:47.793Z,85.70
2019-03-09T18:12:16.930Z,85.90
2019-03-09T18:14:46.077Z,85.80
2019-03-09T18:17:15.258Z,85.90
2019-03-09T18:19:44.426Z,86.30
2019-03-09T18:22:13.570Z,86.40
2019-03-09T18:24:42.726Z,86.50
2019-03-09T18:27:11.882Z,86.50
2019-03-09T18:29:41.054Z,86.60
2019-03-09T18:32:10.185Z,86.70
2019-03-09T18:34:39.341Z,86.90
2019-03-09T18:37:08.494Z,87.20
2019-03-09T18:39:37.669Z,87.40
2019-03-09T18:42:06.858Z,87.60
2019-03-09T18:44:36.077Z,87.70
2019-03-09T18:47:05.313Z,87.90
2019-03-09T18:49:34.562Z,88.10
2019-03-09T18:52:03.743Z,88.40
2019-03-09T18:54:32.902Z,88.70
2019-03-09T18:57:02.165Z,88.90
2019-03-09T18:59:31.338Z,89.20
2019-03-09T19:02:00.561Z,89.10
2019-03-09T19:04:29.763Z,89.00
2019-03-09T19:06:58.990Z,88.90
2019-03-09T19:09:28.145Z,89.20
2019-03-09T19:11:57.340Z,89.10
2019-03-09T19:14:26.474Z,89.20
2019-03-09T19:16:55.626Z,89.80
2019-03-09T19:19:24.790Z,90.40
2019-03-09T19:21:53.925Z,90.40
2019-03-09T19:24:23.109Z,90.40
2019-03-09T19:26:52.250Z,90.40
2019-03-09T19:29:21.602Z,90.40
2019-03-09T19:31:50.950Z,90.50
2019-03-09T19:34:20.138Z,90.40
2019-03-09T19:36:49.353Z,90.30
2019-03-09T19:39:18.583Z,90.20
2019-03-09T19:41:47.729Z,90.20
2019-03-09T19:44:16.975Z,90.20
2019-03-09T19:46:46.302Z,91.10
2019-03-09T19:49:15.441Z,91.20
2019-03-09T19:51:44.578Z,91.20
2019-03-09T19:54:13.801Z,91.20
2019-03-09T19:56:42.966Z,91.10
2019-03-09T19:59:12.134Z,91.40
2019-03-09T20:01:41.367Z,91.80
2019-03-09T20:04:10.526Z,92.00
2019-03-09T20:06:39.686Z,92.20
2019-03-09T20:09:09.307Z,92.40
2019-03-09T20:11:38.462Z,92.60
2019-03-09T20:14:07.605Z,92.80
2019-03-09T20:16:36.762Z,92.90
2019-03-09T20:19:05.993Z,93.00
2019-03-09T20:21:35.217Z,93.00
2019-03-09T20:24:04.470Z,92.90
2019-03-09T20:26:33.609Z,92.20
2019-03-09T20:29:02.870Z,91.50
2019-03-09T20:31:32.018Z,91.20
2019-03-09T20:34:01.198Z,91.10
2019-03-09T20:36:30.815Z,90.80
2019-03-09T20:39:00.041Z,90.70
2019-03-09T20:41:29.286Z,90.50
2019-03-09T20:43:58.438Z,90.50
2019-03-09T20:46:27.620Z,90.40
2019-03-09T20:48:56.765Z,90.20
2019-03-09T20:51:25.906Z,90.30
2019-03-09T20:53:55.072Z,90.30
2019-03-09T20:56:24.294Z,90.40
2019-03-09T20:58:53.527Z,90.40
2019-03-09T21:01:22.675Z,90.60
2019-03-09T21:03:51.818Z,90.50
2019-03-09T21:06:21.075Z,90.60
2019-03-09T21:08:50.272Z,90.50
2019-03-09T21:11:19.499Z,90.50
2019-03-09T21:13:48.729Z,90.60
2019-03-09T21:16:17.975Z,90.50
2019-03-09T21:18:47.201Z,90.20
2019-03-09T21:21:16.354Z,90.20
2019-03-09T21:23:45.513Z,90.20
2019-03-09T21:26:14.689Z,90.30
2019-03-09T21:28:43.903Z,90.40
2019-03-09T21:31:13.045Z,90.70
2019-03-09T21:33:42.222Z,90.80
2019-03-09T21:36:11.401Z,91.00
2019-03-09T21:38:40.557Z,91.10
2019-03-09T21:41:09.766Z,91.70
2019-03-09T21:43:38.925Z,93.20
2019-03-09T21:46:08.473Z,94.80
2019-03-09T21:48:37.611Z,96.20
2019-03-09T21:51:06.749Z,96.10
2019-03-09T21:53:35.927Z,96.40
2019-03-09T21:56:05.091Z,96.60
2019-03-09T21:58:34.246Z,97.20
2019-03-09T22:01:03.386Z,97.80
2019-03-09T22:03:32.534Z,97.80
2019-03-09T22:06:06.107Z,98.00
2019-03-09T22:08:32.708Z,98.50
2019-03-09T22:11:01.983Z,99.00
2019-03-09T22:13:31.154Z,99.50
2019-03-09T22:16:00.361Z,99.90
2019-03-09T22:18:29.518Z,99.90
2019-03-09T22:20:58.678Z,99.90
2019-03-09T22:23:27.878Z,99.90
2019-03-09T22:25:57.026Z,99.90
2019-03-09T22:28:26.170Z,99.90
2019-03-09T22:30:55.477Z,99.90
2019-03-09T22:33:24.724Z,99.90
2019-03-09T22:35:56.053Z,99.90
2019-03-09T22:38:25.257Z,99.90
2019-03-09T22:40:54.405Z,99.90
2019-03-09T22:43:23.559Z,99.90
2019-03-09T22:46:08.305Z,99.90
2019-03-09T22:48:37.502Z,99.90
2019-03-09T22:51:06.765Z,99.90
2019-03-09T22:53:36.042Z,99.90
2019-03-09T22:56:05.213Z,99.90
2019-03-09T22:58:34.649Z,99.90
2019-03-09T23:01:03.863Z,99.90
2019-03-09T23:03:33.300Z,99.90
2019-03-09T23:06:02.531Z,99.90
2019-03-09T23:08:31.706Z,99.90
2019-03-09T23:11:00.845Z,99.80
2019-03-09T23:13:29.982Z,99.70
2019-03-09T23:15:59.147Z,99.60
2019-03-09T23:18:28.429Z,99.40
2019-03-09T23:20:57.637Z,99.30
2019-03-09T23:23:26.790Z,99.20
2019-03-09T23:25:55.926Z,99.30
2019-03-09T23:28:25.097Z,99.30
2019-03-09T23:30:54.672Z,99.20
2019-03-09T23:33:24.002Z,99.30
2019-03-09T23:35:53.186Z,99.20
2019-03-09T23:38:22.335Z,99.20
2019-03-09T23:40:51.477Z,99.00
2019-03-09T23:43:20.634Z,98.60
2019-03-09T23:45:49.785Z,98.50
2019-03-09T23:48:18.923Z,98.40
2019-03-09T23:50:48.102Z,98.10
2019-03-09T23:53:17.278Z,97.70
2019-03-09T23:55:46.415Z,98.00
2019-03-09T23:58:15.611Z,99.90
